Accueil
METAR-TAF:

METAR-TAF

Aéroports :

Aéroport international de Nouakchott-Oumtounsy

Nouakchott, Mauritanie

latitude: 18-18-36N, longitude: 015-58-11W, altitude: 3 m

Observation

Le bulletin a été fait il y a 17 minutes, à 11:00 UTC
Vent 4 kt de nord/nord-ouest, variant entre ouest/sud-ouest et nord-est
Température 29°C
Humidité 66%
Pression 1012 hPa
Visibilité: 8000 m

METAR: GQNO 201100Z 34004KT 240V040 8000 NSC 29/22 Q1012 NOSIG

Heure: 11:17 (11:17 UTC)

Prévision

Le bulletin a été fait il y a 5 heures et 47 minutes, à 05:30 UTC
Prévision valable du 20 à 06 UTC au 21 à 12 UTC
Vent 12 kt de nord-ouest
Visibilité: 8000 m
Probabilité 30% :
Temporairement
du 20 à 06 UTC au 20 à 08 UTC
Nuages fragmentés à une hauteur de 800 ft
Evoluant progressivement
du 20 à 08 UTC au 20 à 10 UTC
Vent 12 kt de ouest/sud-ouest

TAF: GQNO 200530Z 2006/2112 31012KT 8000 NSC PROB30 TEMPO 2006/2008 BKN008 BECMG 2008/2010 25012KT

Observations et prévisions météorologiques de plus de 4000 aéroports (messages METAR et TAF).

Les stations disponibles sont représentées par des disques jaunes et rouges sur la carte.

Passer la souris dessus pour voir le nom de la station.

Cliquer dessus pour voir les observations et prévisions météorologiques.

Pour changer de carte: cliquez sur les boutons verts avec une croix noire pour zoomer, sur le bouton vert avec un tiret pour effectuer un zoom arrière, ou sur les flèches vertes pour les cartes adjacentes.


METAR-TAF: